Terminal Aerodrome Forecast
Issued by NWS

Home | Current Version | Previous Version | Text Only | Print | Product List | Glossary On
Versions: 1 2 3 4 5 6 7 8 9 10 11 12 13 14 15 16 17
786
FTPA31 PHFO 250333 CCA
TAFHLI
TAF COR
PHLI 250333Z 2500/2524 05017KT P6SM FEW020 SCT040
     FM250500 05017KT P6SM VCSH FEW015 BKN025 OVC040
     FM251200 05015KT P6SM FEW020 BKN050=

USA.gov is the U.S. government's official web portal to all federal, state and local government web resources and services.